sensor_id;sensor_type;location;lat;lon;timestamp;P1;durP1;ratioP1;P2;durP2;ratioP2
4084;SDS011;2057;50.858;6.572;2023-05-19T00:00:20;14.37;;;3.90;;
4084;SDS011;2057;50.858;6.572;2023-05-19T00:02:45;14.53;;;4.73;;
4084;SDS011;2057;50.858;6.572;2023-05-19T00:05:11;12.33;;;4.90;;
4084;SDS011;2057;50.858;6.572;2023-05-19T00:07:39;15.53;;;4.13;;
4084;SDS011;2057;50.858;6.572;2023-05-19T00:10:07;13.83;;;3.97;;
4084;SDS011;2057;50.858;6.572;2023-05-19T00:12:33;14.77;;;5.50;;
4084;SDS011;2057;50.858;6.572;2023-05-19T00:14:59;17.70;;;5.30;;
4084;SDS011;2057;50.858;6.572;2023-05-19T00:17:25;16.00;;;4.33;;
4084;SDS011;2057;50.858;6.572;2023-05-19T00:19:50;7.70;;;3.67;;
4084;SDS011;2057;50.858;6.572;2023-05-19T00:22:16;9.87;;;4.40;;
4084;SDS011;2057;50.858;6.572;2023-05-19T00:24:41;13.63;;;4.33;;
4084;SDS011;2057;50.858;6.572;2023-05-19T00:27:07;15.43;;;5.33;;
4084;SDS011;2057;50.858;6.572;2023-05-19T00:29:32;13.23;;;4.43;;
4084;SDS011;2057;50.858;6.572;2023-05-19T00:31:57;15.63;;;4.17;;
4084;SDS011;2057;50.858;6.572;2023-05-19T00:34:23;11.83;;;4.40;;
4084;SDS011;2057;50.858;6.572;2023-05-19T00:36:49;17.90;;;4.57;;
4084;SDS011;2057;50.858;6.572;2023-05-19T00:39:15;25.53;;;4.47;;
4084;SDS011;2057;50.858;6.572;2023-05-19T00:41:40;16.73;;;4.90;;
4084;SDS011;2057;50.858;6.572;2023-05-19T00:44:05;15.10;;;4.90;;
4084;SDS011;2057;50.858;6.572;2023-05-19T00:46:31;11.93;;;4.17;;
4084;SDS011;2057;50.858;6.572;2023-05-19T00:48:56;16.73;;;4.20;;
4084;SDS011;2057;50.858;6.572;2023-05-19T00:51:22;13.23;;;4.37;;
4084;SDS011;2057;50.858;6.572;2023-05-19T00:53:50;7.93;;;4.70;;
4084;SDS011;2057;50.858;6.572;2023-05-19T00:56:16;15.63;;;5.30;;
4084;SDS011;2057;50.858;6.572;2023-05-19T00:58:42;11.13;;;4.40;;
4084;SDS011;2057;50.858;6.572;2023-05-19T01:01:08;13.97;;;4.13;;
4084;SDS011;2057;50.858;6.572;2023-05-19T01:03:33;18.90;;;5.53;;
4084;SDS011;2057;50.858;6.572;2023-05-19T01:06:00;8.03;;;4.07;;
4084;SDS011;2057;50.858;6.572;2023-05-19T01:08:28;10.53;;;4.60;;
4084;SDS011;2057;50.858;6.572;2023-05-19T01:10:55;16.37;;;3.70;;
4084;SDS011;2057;50.858;6.572;2023-05-19T01:13:21;13.13;;;4.53;;
4084;SDS011;2057;50.858;6.572;2023-05-19T01:16:00;10.37;;;4.40;;
4084;SDS011;2057;50.858;6.572;2023-05-19T01:18:50;16.20;;;4.70;;
4084;SDS011;2057;50.858;6.572;2023-05-19T01:27:01;8.83;;;3.70;;
4084;SDS011;2057;50.858;6.572;2023-05-19T01:32:31;11.83;;;3.60;;
4084;SDS011;2057;50.858;6.572;2023-05-19T01:34:58;10.83;;;4.77;;
4084;SDS011;2057;50.858;6.572;2023-05-19T01:37:25;10.93;;;4.40;;
4084;SDS011;2057;50.858;6.572;2023-05-19T01:39:51;11.17;;;4.33;;
4084;SDS011;2057;50.858;6.572;2023-05-19T01:42:17;9.57;;;4.10;;
4084;SDS011;2057;50.858;6.572;2023-05-19T01:44:44;11.40;;;4.60;;
4084;SDS011;2057;50.858;6.572;2023-05-19T01:47:10;12.23;;;4.27;;
4084;SDS011;2057;50.858;6.572;2023-05-19T01:49:36;10.73;;;4.50;;
4084;SDS011;2057;50.858;6.572;2023-05-19T01:52:01;18.53;;;4.83;;
4084;SDS011;2057;50.858;6.572;2023-05-19T01:54:27;12.93;;;4.13;;
4084;SDS011;2057;50.858;6.572;2023-05-19T01:56:59;10.80;;;4.77;;
4084;SDS011;2057;50.858;6.572;2023-05-19T02:02:22;9.20;;;5.37;;
4084;SDS011;2057;50.858;6.572;2023-05-19T02:04:54;11.53;;;4.90;;
4084;SDS011;2057;50.858;6.572;2023-05-19T02:10:13;12.20;;;5.60;;
4084;SDS011;2057;50.858;6.572;2023-05-19T02:12:43;15.20;;;4.07;;
4084;SDS011;2057;50.858;6.572;2023-05-19T02:15:12;17.73;;;5.30;;
4084;SDS011;2057;50.858;6.572;2023-05-19T02:17:41;8.47;;;4.37;;
4084;SDS011;2057;50.858;6.572;2023-05-19T02:20:12;14.20;;;5.40;;
4084;SDS011;2057;50.858;6.572;2023-05-19T02:22:39;11.43;;;5.80;;
4084;SDS011;2057;50.858;6.572;2023-05-19T02:25:05;12.03;;;3.77;;
4084;SDS011;2057;50.858;6.572;2023-05-19T02:27:30;13.80;;;4.87;;
4084;SDS011;2057;50.858;6.572;2023-05-19T02:29:56;12.73;;;5.37;;
4084;SDS011;2057;50.858;6.572;2023-05-19T02:32:21;12.93;;;5.00;;
4084;SDS011;2057;50.858;6.572;2023-05-19T02:34:47;10.70;;;4.60;;
4084;SDS011;2057;50.858;6.572;2023-05-19T02:37:12;13.53;;;5.07;;
4084;SDS011;2057;50.858;6.572;2023-05-19T02:39:41;10.43;;;5.57;;
4084;SDS011;2057;50.858;6.572;2023-05-19T02:42:07;13.73;;;4.50;;
4084;SDS011;2057;50.858;6.572;2023-05-19T02:44:32;19.03;;;5.57;;
4084;SDS011;2057;50.858;6.572;2023-05-19T02:46:58;11.40;;;4.33;;
4084;SDS011;2057;50.858;6.572;2023-05-19T02:49:23;20.07;;;4.80;;
4084;SDS011;2057;50.858;6.572;2023-05-19T02:51:49;18.47;;;5.90;;
4084;SDS011;2057;50.858;6.572;2023-05-19T02:54:14;15.57;;;4.37;;
4084;SDS011;2057;50.858;6.572;2023-05-19T02:56:39;21.97;;;6.17;;
4084;SDS011;2057;50.858;6.572;2023-05-19T02:59:05;10.33;;;5.33;;
4084;SDS011;2057;50.858;6.572;2023-05-19T03:01:30;7.00;;;4.27;;
4084;SDS011;2057;50.858;6.572;2023-05-19T03:03:56;12.33;;;5.33;;
4084;SDS011;2057;50.858;6.572;2023-05-19T03:06:22;17.40;;;6.37;;
4084;SDS011;2057;50.858;6.572;2023-05-19T03:08:48;11.53;;;5.03;;
4084;SDS011;2057;50.858;6.572;2023-05-19T03:11:14;17.07;;;6.13;;
4084;SDS011;2057;50.858;6.572;2023-05-19T03:13:39;14.63;;;5.70;;
4084;SDS011;2057;50.858;6.572;2023-05-19T03:16:05;8.70;;;4.87;;
4084;SDS011;2057;50.858;6.572;2023-05-19T03:18:32;20.53;;;7.03;;
4084;SDS011;2057;50.858;6.572;2023-05-19T03:20:57;10.33;;;5.10;;
4084;SDS011;2057;50.858;6.572;2023-05-19T03:23:25;26.27;;;5.93;;
4084;SDS011;2057;50.858;6.572;2023-05-19T03:25:51;12.60;;;6.10;;
4084;SDS011;2057;50.858;6.572;2023-05-19T03:28:20;11.83;;;4.30;;
4084;SDS011;2057;50.858;6.572;2023-05-19T03:30:47;5.43;;;4.27;;
4084;SDS011;2057;50.858;6.572;2023-05-19T03:33:14;13.00;;;4.70;;
4084;SDS011;2057;50.858;6.572;2023-05-19T03:35:40;16.93;;;5.73;;
4084;SDS011;2057;50.858;6.572;2023-05-19T03:38:05;23.13;;;5.53;;
4084;SDS011;2057;50.858;6.572;2023-05-19T03:40:31;8.53;;;5.40;;
4084;SDS011;2057;50.858;6.572;2023-05-19T03:42:56;12.47;;;5.47;;
4084;SDS011;2057;50.858;6.572;2023-05-19T03:45:21;12.87;;;5.33;;
4084;SDS011;2057;50.858;6.572;2023-05-19T03:47:47;15.50;;;5.20;;
4084;SDS011;2057;50.858;6.572;2023-05-19T03:50:12;25.60;;;7.23;;
4084;SDS011;2057;50.858;6.572;2023-05-19T03:52:38;16.50;;;4.73;;
4084;SDS011;2057;50.858;6.572;2023-05-19T03:55:03;19.70;;;5.70;;
4084;SDS011;2057;50.858;6.572;2023-05-19T03:57:29;16.00;;;5.57;;
4084;SDS011;2057;50.858;6.572;2023-05-19T03:59:55;27.73;;;6.60;;
4084;SDS011;2057;50.858;6.572;2023-05-19T04:02:20;13.63;;;5.83;;
4084;SDS011;2057;50.858;6.572;2023-05-19T04:04:45;17.80;;;5.93;;
4084;SDS011;2057;50.858;6.572;2023-05-19T04:07:11;7.03;;;5.60;;
4084;SDS011;2057;50.858;6.572;2023-05-19T04:09:36;14.00;;;5.53;;
4084;SDS011;2057;50.858;6.572;2023-05-19T04:12:02;12.63;;;5.40;;
4084;SDS011;2057;50.858;6.572;2023-05-19T04:14:27;10.60;;;4.67;;
4084;SDS011;2057;50.858;6.572;2023-05-19T04:16:53;16.77;;;4.77;;
4084;SDS011;2057;50.858;6.572;2023-05-19T04:19:18;11.03;;;5.47;;
4084;SDS011;2057;50.858;6.572;2023-05-19T04:21:44;14.40;;;5.00;;
4084;SDS011;2057;50.858;6.572;2023-05-19T04:24:09;20.33;;;4.83;;
4084;SDS011;2057;50.858;6.572;2023-05-19T04:26:34;15.87;;;6.20;;
4084;SDS011;2057;50.858;6.572;2023-05-19T04:29:02;31.10;;;6.87;;
4084;SDS011;2057;50.858;6.572;2023-05-19T04:31:28;20.93;;;5.83;;
4084;SDS011;2057;50.858;6.572;2023-05-19T04:33:54;17.37;;;5.13;;
4084;SDS011;2057;50.858;6.572;2023-05-19T04:36:19;12.57;;;5.17;;
4084;SDS011;2057;50.858;6.572;2023-05-19T04:38:45;16.10;;;5.70;;
4084;SDS011;2057;50.858;6.572;2023-05-19T04:41:11;18.53;;;5.53;;
4084;SDS011;2057;50.858;6.572;2023-05-19T04:43:37;14.20;;;5.77;;
4084;SDS011;2057;50.858;6.572;2023-05-19T04:46:08;10.20;;;5.37;;
4084;SDS011;2057;50.858;6.572;2023-05-19T04:48:36;12.70;;;5.70;;
4084;SDS011;2057;50.858;6.572;2023-05-19T04:51:02;17.33;;;6.27;;
4084;SDS011;2057;50.858;6.572;2023-05-19T04:53:28;22.70;;;6.80;;
4084;SDS011;2057;50.858;6.572;2023-05-19T04:55:54;18.37;;;5.90;;
4084;SDS011;2057;50.858;6.572;2023-05-19T04:58:20;19.23;;;5.80;;
4084;SDS011;2057;50.858;6.572;2023-05-19T05:00:46;14.73;;;6.17;;
4084;SDS011;2057;50.858;6.572;2023-05-19T05:03:11;16.87;;;5.00;;
4084;SDS011;2057;50.858;6.572;2023-05-19T05:05:38;15.80;;;6.10;;
4084;SDS011;2057;50.858;6.572;2023-05-19T05:08:03;27.63;;;5.90;;
4084;SDS011;2057;50.858;6.572;2023-05-19T05:10:29;11.27;;;4.20;;
4084;SDS011;2057;50.858;6.572;2023-05-19T05:12:54;17.27;;;5.73;;
4084;SDS011;2057;50.858;6.572;2023-05-19T05:15:20;14.53;;;5.40;;
4084;SDS011;2057;50.858;6.572;2023-05-19T05:17:46;15.37;;;5.90;;
4084;SDS011;2057;50.858;6.572;2023-05-19T05:20:12;11.33;;;4.60;;
4084;SDS011;2057;50.858;6.572;2023-05-19T05:22:38;15.80;;;5.83;;
4084;SDS011;2057;50.858;6.572;2023-05-19T05:25:03;19.00;;;5.50;;
4084;SDS011;2057;50.858;6.572;2023-05-19T05:27:29;18.13;;;5.60;;
4084;SDS011;2057;50.858;6.572;2023-05-19T05:29:55;17.43;;;6.17;;
4084;SDS011;2057;50.858;6.572;2023-05-19T05:32:21;19.47;;;5.50;;
4084;SDS011;2057;50.858;6.572;2023-05-19T05:34:47;22.93;;;6.43;;
4084;SDS011;2057;50.858;6.572;2023-05-19T05:37:12;13.43;;;6.03;;
4084;SDS011;2057;50.858;6.572;2023-05-19T05:39:39;12.00;;;7.00;;
4084;SDS011;2057;50.858;6.572;2023-05-19T05:42:04;15.77;;;6.10;;
4084;SDS011;2057;50.858;6.572;2023-05-19T05:44:29;14.70;;;5.80;;
4084;SDS011;2057;50.858;6.572;2023-05-19T05:46:55;18.93;;;6.07;;
4084;SDS011;2057;50.858;6.572;2023-05-19T05:49:21;14.17;;;5.60;;
4084;SDS011;2057;50.858;6.572;2023-05-19T05:51:46;15.97;;;5.27;;
4084;SDS011;2057;50.858;6.572;2023-05-19T05:54:12;15.87;;;7.13;;
4084;SDS011;2057;50.858;6.572;2023-05-19T05:56:41;19.00;;;6.93;;
4084;SDS011;2057;50.858;6.572;2023-05-19T05:59:06;24.77;;;5.90;;
4084;SDS011;2057;50.858;6.572;2023-05-19T06:01:32;18.20;;;5.73;;
4084;SDS011;2057;50.858;6.572;2023-05-19T06:03:59;13.20;;;5.87;;
4084;SDS011;2057;50.858;6.572;2023-05-19T06:06:24;19.80;;;4.70;;
4084;SDS011;2057;50.858;6.572;2023-05-19T06:08:50;16.33;;;5.17;;
4084;SDS011;2057;50.858;6.572;2023-05-19T06:11:15;17.20;;;6.00;;
4084;SDS011;2057;50.858;6.572;2023-05-19T06:13:40;12.30;;;5.30;;
4084;SDS011;2057;50.858;6.572;2023-05-19T06:16:06;31.87;;;5.90;;
4084;SDS011;2057;50.858;6.572;2023-05-19T06:18:32;14.50;;;5.37;;
4084;SDS011;2057;50.858;6.572;2023-05-19T06:20:57;14.73;;;5.40;;
4084;SDS011;2057;50.858;6.572;2023-05-19T06:23:23;15.27;;;6.80;;
4084;SDS011;2057;50.858;6.572;2023-05-19T06:25:50;12.47;;;5.43;;
4084;SDS011;2057;50.858;6.572;2023-05-19T06:28:16;12.23;;;4.77;;
4084;SDS011;2057;50.858;6.572;2023-05-19T06:30:41;11.90;;;4.20;;
4084;SDS011;2057;50.858;6.572;2023-05-19T06:33:06;24.73;;;5.40;;
4084;SDS011;2057;50.858;6.572;2023-05-19T06:35:32;15.70;;;5.10;;
4084;SDS011;2057;50.858;6.572;2023-05-19T06:37:57;24.87;;;5.70;;
4084;SDS011;2057;50.858;6.572;2023-05-19T06:40:23;19.87;;;4.63;;
4084;SDS011;2057;50.858;6.572;2023-05-19T06:42:48;33.40;;;6.07;;
4084;SDS011;2057;50.858;6.572;2023-05-19T06:45:13;25.20;;;4.73;;
4084;SDS011;2057;50.858;6.572;2023-05-19T06:47:39;12.47;;;4.40;;
4084;SDS011;2057;50.858;6.572;2023-05-19T06:50:08;16.20;;;6.40;;
4084;SDS011;2057;50.858;6.572;2023-05-19T06:52:34;9.50;;;3.90;;
4084;SDS011;2057;50.858;6.572;2023-05-19T06:55:00;11.03;;;3.90;;
4084;SDS011;2057;50.858;6.572;2023-05-19T06:57:25;9.63;;;4.20;;
4084;SDS011;2057;50.858;6.572;2023-05-19T06:59:51;41.33;;;5.40;;
4084;SDS011;2057;50.858;6.572;2023-05-19T07:02:16;14.20;;;5.43;;
4084;SDS011;2057;50.858;6.572;2023-05-19T07:04:41;11.33;;;4.43;;
4084;SDS011;2057;50.858;6.572;2023-05-19T07:07:07;11.57;;;4.27;;
4084;SDS011;2057;50.858;6.572;2023-05-19T07:09:33;12.50;;;4.87;;
4084;SDS011;2057;50.858;6.572;2023-05-19T07:11:58;8.70;;;4.60;;
4084;SDS011;2057;50.858;6.572;2023-05-19T07:14:23;10.37;;;4.73;;
4084;SDS011;2057;50.858;6.572;2023-05-19T07:16:49;7.00;;;3.50;;
4084;SDS011;2057;50.858;6.572;2023-05-19T07:19:14;14.27;;;4.47;;
4084;SDS011;2057;50.858;6.572;2023-05-19T07:21:40;16.43;;;4.40;;
4084;SDS011;2057;50.858;6.572;2023-05-19T07:24:06;10.20;;;3.90;;
4084;SDS011;2057;50.858;6.572;2023-05-19T07:26:31;11.47;;;5.17;;
4084;SDS011;2057;50.858;6.572;2023-05-19T07:28:57;12.37;;;4.50;;
4084;SDS011;2057;50.858;6.572;2023-05-19T07:31:22;15.80;;;5.37;;
4084;SDS011;2057;50.858;6.572;2023-05-19T07:33:47;15.07;;;5.20;;
4084;SDS011;2057;50.858;6.572;2023-05-19T07:36:13;30.17;;;5.80;;
4084;SDS011;2057;50.858;6.572;2023-05-19T07:38:38;27.17;;;5.63;;
4084;SDS011;2057;50.858;6.572;2023-05-19T07:41:03;23.80;;;5.40;;
4084;SDS011;2057;50.858;6.572;2023-05-19T07:43:29;8.73;;;5.43;;
4084;SDS011;2057;50.858;6.572;2023-05-19T07:45:54;14.50;;;5.63;;
4084;SDS011;2057;50.858;6.572;2023-05-19T07:48:20;17.93;;;5.63;;
4084;SDS011;2057;50.858;6.572;2023-05-19T07:50:50;22.40;;;5.73;;
4084;SDS011;2057;50.858;6.572;2023-05-19T07:53:16;15.90;;;5.63;;
4084;SDS011;2057;50.858;6.572;2023-05-19T07:55:43;17.37;;;5.53;;
4084;SDS011;2057;50.858;6.572;2023-05-19T07:58:08;15.73;;;4.87;;
4084;SDS011;2057;50.858;6.572;2023-05-19T08:00:33;20.07;;;6.40;;
4084;SDS011;2057;50.858;6.572;2023-05-19T08:02:59;18.47;;;6.27;;
4084;SDS011;2057;50.858;6.572;2023-05-19T08:05:25;22.23;;;6.00;;
4084;SDS011;2057;50.858;6.572;2023-05-19T08:07:51;16.77;;;5.53;;
4084;SDS011;2057;50.858;6.572;2023-05-19T08:10:16;12.17;;;5.80;;
4084;SDS011;2057;50.858;6.572;2023-05-19T08:12:42;15.63;;;4.83;;
4084;SDS011;2057;50.858;6.572;2023-05-19T08:15:08;20.57;;;5.87;;
4084;SDS011;2057;50.858;6.572;2023-05-19T08:17:35;17.57;;;6.23;;
4084;SDS011;2057;50.858;6.572;2023-05-19T08:20:01;22.37;;;5.33;;
4084;SDS011;2057;50.858;6.572;2023-05-19T08:22:28;14.90;;;4.83;;
4084;SDS011;2057;50.858;6.572;2023-05-19T08:24:54;23.80;;;5.83;;
4084;SDS011;2057;50.858;6.572;2023-05-19T08:27:19;13.10;;;4.50;;
4084;SDS011;2057;50.858;6.572;2023-05-19T08:29:45;14.30;;;5.33;;
4084;SDS011;2057;50.858;6.572;2023-05-19T08:32:10;12.20;;;5.07;;
4084;SDS011;2057;50.858;6.572;2023-05-19T08:34:35;10.47;;;4.97;;
4084;SDS011;2057;50.858;6.572;2023-05-19T08:37:01;6.60;;;4.20;;
4084;SDS011;2057;50.858;6.572;2023-05-19T08:39:27;16.20;;;4.20;;
4084;SDS011;2057;50.858;6.572;2023-05-19T08:41:52;12.80;;;4.37;;
4084;SDS011;2057;50.858;6.572;2023-05-19T08:44:18;11.73;;;3.77;;
4084;SDS011;2057;50.858;6.572;2023-05-19T08:46:43;15.60;;;4.60;;
4084;SDS011;2057;50.858;6.572;2023-05-19T08:49:12;16.73;;;4.10;;
4084;SDS011;2057;50.858;6.572;2023-05-19T08:51:42;15.93;;;3.53;;
4084;SDS011;2057;50.858;6.572;2023-05-19T08:54:22;12.93;;;3.10;;
4084;SDS011;2057;50.858;6.572;2023-05-19T08:56:54;17.50;;;3.87;;
4084;SDS011;2057;50.858;6.572;2023-05-19T08:59:19;12.40;;;3.20;;
4084;SDS011;2057;50.858;6.572;2023-05-19T09:01:46;10.37;;;3.90;;
4084;SDS011;2057;50.858;6.572;2023-05-19T09:04:12;13.20;;;3.83;;
4084;SDS011;2057;50.858;6.572;2023-05-19T09:06:41;8.30;;;3.33;;
4084;SDS011;2057;50.858;6.572;2023-05-19T09:09:08;9.17;;;3.90;;
4084;SDS011;2057;50.858;6.572;2023-05-19T09:11:34;14.03;;;4.07;;
4084;SDS011;2057;50.858;6.572;2023-05-19T09:14:01;21.37;;;4.70;;
4084;SDS011;2057;50.858;6.572;2023-05-19T09:16:27;10.33;;;3.70;;
4084;SDS011;2057;50.858;6.572;2023-05-19T09:18:54;9.67;;;3.43;;
4084;SDS011;2057;50.858;6.572;2023-05-19T09:21:25;8.33;;;3.30;;
4084;SDS011;2057;50.858;6.572;2023-05-19T09:23:57;12.53;;;3.57;;
4084;SDS011;2057;50.858;6.572;2023-05-19T09:26:40;15.30;;;3.03;;
4084;SDS011;2057;50.858;6.572;2023-05-19T09:29:16;12.70;;;3.33;;
4084;SDS011;2057;50.858;6.572;2023-05-19T09:31:51;7.70;;;2.57;;
4084;SDS011;2057;50.858;6.572;2023-05-19T09:34:19;16.67;;;3.83;;
4084;SDS011;2057;50.858;6.572;2023-05-19T09:36:46;8.70;;;2.93;;
4084;SDS011;2057;50.858;6.572;2023-05-19T09:39:19;27.27;;;3.80;;
4084;SDS011;2057;50.858;6.572;2023-05-19T09:41:46;16.20;;;2.63;;
4084;SDS011;2057;50.858;6.572;2023-05-19T09:44:24;21.87;;;3.90;;
4084;SDS011;2057;50.858;6.572;2023-05-19T09:46:54;8.67;;;2.50;;
4084;SDS011;2057;50.858;6.572;2023-05-19T09:49:21;17.97;;;3.17;;
4084;SDS011;2057;50.858;6.572;2023-05-19T09:51:54;8.90;;;2.97;;
4084;SDS011;2057;50.858;6.572;2023-05-19T09:54:21;6.70;;;2.37;;
4084;SDS011;2057;50.858;6.572;2023-05-19T09:57:10;7.40;;;2.83;;
4084;SDS011;2057;50.858;6.572;2023-05-19T09:59:36;11.07;;;3.27;;
4084;SDS011;2057;50.858;6.572;2023-05-19T10:02:03;8.87;;;2.83;;
4084;SDS011;2057;50.858;6.572;2023-05-19T10:04:29;8.17;;;2.70;;
4084;SDS011;2057;50.858;6.572;2023-05-19T10:06:55;6.63;;;3.20;;
4084;SDS011;2057;50.858;6.572;2023-05-19T10:09:25;4.80;;;2.70;;
4084;SDS011;2057;50.858;6.572;2023-05-19T10:11:53;13.33;;;2.87;;
4084;SDS011;2057;50.858;6.572;2023-05-19T10:14:23;12.17;;;3.10;;
4084;SDS011;2057;50.858;6.572;2023-05-19T10:16:53;7.87;;;3.37;;
4084;SDS011;2057;50.858;6.572;2023-05-19T10:19:21;16.20;;;3.67;;
4084;SDS011;2057;50.858;6.572;2023-05-19T10:21:48;11.43;;;3.43;;
4084;SDS011;2057;50.858;6.572;2023-05-19T10:24:13;15.90;;;3.40;;
4084;SDS011;2057;50.858;6.572;2023-05-19T10:26:40;9.50;;;3.37;;
4084;SDS011;2057;50.858;6.572;2023-05-19T10:29:13;8.00;;;2.60;;
4084;SDS011;2057;50.858;6.572;2023-05-19T10:31:41;11.60;;;3.17;;
4084;SDS011;2057;50.858;6.572;2023-05-19T10:36:51;8.77;;;2.60;;
4084;SDS011;2057;50.858;6.572;2023-05-19T10:39:43;7.97;;;3.00;;
4084;SDS011;2057;50.858;6.572;2023-05-19T10:42:17;8.50;;;2.80;;
4084;SDS011;2057;50.858;6.572;2023-05-19T10:47:24;6.10;;;2.90;;
4084;SDS011;2057;50.858;6.572;2023-05-19T10:49:53;13.13;;;3.00;;
4084;SDS011;2057;50.858;6.572;2023-05-19T10:52:20;10.63;;;2.70;;
4084;SDS011;2057;50.858;6.572;2023-05-19T10:54:46;9.50;;;3.63;;
4084;SDS011;2057;50.858;6.572;2023-05-19T10:57:16;12.30;;;3.83;;
4084;SDS011;2057;50.858;6.572;2023-05-19T10:59:42;14.00;;;4.30;;
4084;SDS011;2057;50.858;6.572;2023-05-19T11:02:36;10.40;;;2.87;;
4084;SDS011;2057;50.858;6.572;2023-05-19T11:05:09;5.70;;;2.83;;
4084;SDS011;2057;50.858;6.572;2023-05-19T11:07:41;14.57;;;3.23;;
4084;SDS011;2057;50.858;6.572;2023-05-19T11:10:22;11.27;;;3.10;;
4084;SDS011;2057;50.858;6.572;2023-05-19T11:12:48;21.30;;;3.50;;
4084;SDS011;2057;50.858;6.572;2023-05-19T11:15:14;10.50;;;3.30;;
4084;SDS011;2057;50.858;6.572;2023-05-19T11:17:40;14.00;;;3.53;;
4084;SDS011;2057;50.858;6.572;2023-05-19T11:20:20;10.73;;;3.23;;
4084;SDS011;2057;50.858;6.572;2023-05-19T11:22:59;7.00;;;3.30;;
4084;SDS011;2057;50.858;6.572;2023-05-19T11:25:39;9.37;;;2.87;;
4084;SDS011;2057;50.858;6.572;2023-05-19T11:28:11;10.80;;;3.27;;
4084;SDS011;2057;50.858;6.572;2023-05-19T11:30:41;9.97;;;3.20;;
4084;SDS011;2057;50.858;6.572;2023-05-19T11:33:08;10.57;;;3.30;;
4084;SDS011;2057;50.858;6.572;2023-05-19T11:35:34;7.17;;;2.70;;
4084;SDS011;2057;50.858;6.572;2023-05-19T11:38:01;7.47;;;2.57;;
4084;SDS011;2057;50.858;6.572;2023-05-19T11:40:27;8.37;;;3.13;;
4084;SDS011;2057;50.858;6.572;2023-05-19T11:42:53;8.70;;;4.03;;
4084;SDS011;2057;50.858;6.572;2023-05-19T11:45:25;23.93;;;3.83;;
4084;SDS011;2057;50.858;6.572;2023-05-19T11:47:50;15.20;;;3.00;;
4084;SDS011;2057;50.858;6.572;2023-05-19T11:50:16;10.53;;;3.00;;
4084;SDS011;2057;50.858;6.572;2023-05-19T11:52:45;11.60;;;3.13;;
4084;SDS011;2057;50.858;6.572;2023-05-19T11:55:17;7.80;;;3.20;;
4084;SDS011;2057;50.858;6.572;2023-05-19T11:57:59;11.23;;;3.30;;
4084;SDS011;2057;50.858;6.572;2023-05-19T12:00:26;10.70;;;3.03;;
4084;SDS011;2057;50.858;6.572;2023-05-19T12:02:57;21.43;;;3.90;;
4084;SDS011;2057;50.858;6.572;2023-05-19T12:05:23;9.20;;;3.40;;
4084;SDS011;2057;50.858;6.572;2023-05-19T12:07:50;10.27;;;2.83;;
4084;SDS011;2057;50.858;6.572;2023-05-19T12:10:25;10.33;;;2.70;;
4084;SDS011;2057;50.858;6.572;2023-05-19T12:12:53;19.43;;;3.43;;
4084;SDS011;2057;50.858;6.572;2023-05-19T12:15:22;7.30;;;2.53;;
4084;SDS011;2057;50.858;6.572;2023-05-19T12:17:58;10.20;;;3.47;;
4084;SDS011;2057;50.858;6.572;2023-05-19T12:20:25;9.23;;;2.93;;
4084;SDS011;2057;50.858;6.572;2023-05-19T12:22:54;9.67;;;2.90;;
4084;SDS011;2057;50.858;6.572;2023-05-19T12:25:19;5.30;;;2.50;;
4084;SDS011;2057;50.858;6.572;2023-05-19T12:27:45;6.17;;;2.63;;
4084;SDS011;2057;50.858;6.572;2023-05-19T12:30:13;5.13;;;2.70;;
4084;SDS011;2057;50.858;6.572;2023-05-19T12:32:39;8.40;;;2.60;;
4084;SDS011;2057;50.858;6.572;2023-05-19T12:35:04;5.53;;;2.80;;
4084;SDS011;2057;50.858;6.572;2023-05-19T12:37:31;11.50;;;2.93;;
4084;SDS011;2057;50.858;6.572;2023-05-19T12:39:57;10.43;;;3.40;;
4084;SDS011;2057;50.858;6.572;2023-05-19T12:42:25;8.90;;;3.00;;
4084;SDS011;2057;50.858;6.572;2023-05-19T12:44:59;12.10;;;2.90;;
4084;SDS011;2057;50.858;6.572;2023-05-19T12:47:31;7.43;;;2.90;;
4084;SDS011;2057;50.858;6.572;2023-05-19T12:50:01;17.07;;;2.93;;
4084;SDS011;2057;50.858;6.572;2023-05-19T12:52:28;10.13;;;2.53;;
4084;SDS011;2057;50.858;6.572;2023-05-19T12:55:02;7.00;;;2.47;;
4084;SDS011;2057;50.858;6.572;2023-05-19T12:57:34;9.03;;;2.60;;
4084;SDS011;2057;50.858;6.572;2023-05-19T13:02:28;8.43;;;3.20;;
4084;SDS011;2057;50.858;6.572;2023-05-19T13:04:54;11.50;;;3.20;;
4084;SDS011;2057;50.858;6.572;2023-05-19T13:07:19;12.90;;;3.30;;
4084;SDS011;2057;50.858;6.572;2023-05-19T13:09:45;8.63;;;2.50;;
4084;SDS011;2057;50.858;6.572;2023-05-19T13:12:10;5.07;;;2.10;;
4084;SDS011;2057;50.858;6.572;2023-05-19T13:14:36;7.43;;;2.90;;
4084;SDS011;2057;50.858;6.572;2023-05-19T13:17:01;4.87;;;2.40;;
4084;SDS011;2057;50.858;6.572;2023-05-19T13:19:27;8.30;;;2.63;;
4084;SDS011;2057;50.858;6.572;2023-05-19T13:21:53;6.10;;;2.43;;
4084;SDS011;2057;50.858;6.572;2023-05-19T13:24:18;11.10;;;2.97;;
4084;SDS011;2057;50.858;6.572;2023-05-19T13:26:43;6.90;;;2.30;;
4084;SDS011;2057;50.858;6.572;2023-05-19T13:29:09;7.13;;;2.37;;
4084;SDS011;2057;50.858;6.572;2023-05-19T13:31:35;17.53;;;3.37;;
4084;SDS011;2057;50.858;6.572;2023-05-19T13:34:01;5.60;;;2.50;;
4084;SDS011;2057;50.858;6.572;2023-05-19T13:36:26;14.07;;;2.20;;
4084;SDS011;2057;50.858;6.572;2023-05-19T13:38:52;6.77;;;2.50;;
4084;SDS011;2057;50.858;6.572;2023-05-19T13:41:27;5.20;;;2.80;;
4084;SDS011;2057;50.858;6.572;2023-05-19T13:43:53;12.67;;;3.27;;
4084;SDS011;2057;50.858;6.572;2023-05-19T13:46:22;13.70;;;3.60;;
4084;SDS011;2057;50.858;6.572;2023-05-19T13:48:47;9.93;;;2.90;;
4084;SDS011;2057;50.858;6.572;2023-05-19T13:51:12;5.77;;;2.60;;
4084;SDS011;2057;50.858;6.572;2023-05-19T13:53:38;13.13;;;3.07;;
4084;SDS011;2057;50.858;6.572;2023-05-19T13:56:03;19.63;;;3.40;;
4084;SDS011;2057;50.858;6.572;2023-05-19T13:58:29;11.23;;;2.50;;
4084;SDS011;2057;50.858;6.572;2023-05-19T14:00:54;8.80;;;3.20;;
4084;SDS011;2057;50.858;6.572;2023-05-19T14:03:20;9.00;;;2.80;;
4084;SDS011;2057;50.858;6.572;2023-05-19T14:05:47;6.47;;;2.53;;
4084;SDS011;2057;50.858;6.572;2023-05-19T14:08:12;5.47;;;2.40;;
4084;SDS011;2057;50.858;6.572;2023-05-19T14:10:38;8.10;;;4.10;;
4084;SDS011;2057;50.858;6.572;2023-05-19T14:13:04;22.90;;;3.27;;
4084;SDS011;2057;50.858;6.572;2023-05-19T14:15:29;9.03;;;2.90;;
4084;SDS011;2057;50.858;6.572;2023-05-19T14:17:56;4.70;;;2.33;;
4084;SDS011;2057;50.858;6.572;2023-05-19T14:20:22;7.97;;;2.53;;
4084;SDS011;2057;50.858;6.572;2023-05-19T14:22:48;9.83;;;3.00;;
4084;SDS011;2057;50.858;6.572;2023-05-19T14:25:13;11.73;;;3.10;;
4084;SDS011;2057;50.858;6.572;2023-05-19T14:27:38;13.23;;;3.13;;
4084;SDS011;2057;50.858;6.572;2023-05-19T14:30:04;12.60;;;3.13;;
4084;SDS011;2057;50.858;6.572;2023-05-19T14:32:30;13.67;;;3.70;;
4084;SDS011;2057;50.858;6.572;2023-05-19T14:34:55;11.53;;;3.10;;
4084;SDS011;2057;50.858;6.572;2023-05-19T14:37:21;12.67;;;3.23;;
4084;SDS011;2057;50.858;6.572;2023-05-19T14:39:46;8.70;;;2.40;;
4084;SDS011;2057;50.858;6.572;2023-05-19T14:42:11;8.60;;;2.90;;
4084;SDS011;2057;50.858;6.572;2023-05-19T14:44:37;12.10;;;3.63;;
4084;SDS011;2057;50.858;6.572;2023-05-19T14:47:02;8.93;;;2.63;;
4084;SDS011;2057;50.858;6.572;2023-05-19T14:49:28;10.67;;;3.30;;
4084;SDS011;2057;50.858;6.572;2023-05-19T14:51:54;7.43;;;2.97;;
4084;SDS011;2057;50.858;6.572;2023-05-19T14:54:19;9.33;;;3.27;;
4084;SDS011;2057;50.858;6.572;2023-05-19T14:56:46;8.80;;;3.23;;
4084;SDS011;2057;50.858;6.572;2023-05-19T14:59:11;8.23;;;2.57;;
4084;SDS011;2057;50.858;6.572;2023-05-19T15:01:36;11.33;;;3.40;;
4084;SDS011;2057;50.858;6.572;2023-05-19T15:04:02;7.17;;;2.90;;
4084;SDS011;2057;50.858;6.572;2023-05-19T15:06:27;7.80;;;3.10;;
4084;SDS011;2057;50.858;6.572;2023-05-19T15:08:52;7.40;;;3.03;;
4084;SDS011;2057;50.858;6.572;2023-05-19T15:11:18;5.30;;;2.57;;
4084;SDS011;2057;50.858;6.572;2023-05-19T15:13:43;10.43;;;2.93;;
4084;SDS011;2057;50.858;6.572;2023-05-19T15:16:08;7.67;;;2.60;;
4084;SDS011;2057;50.858;6.572;2023-05-19T15:18:34;6.93;;;2.73;;
4084;SDS011;2057;50.858;6.572;2023-05-19T15:21:01;5.23;;;2.53;;
4084;SDS011;2057;50.858;6.572;2023-05-19T15:23:26;9.53;;;3.10;;
4084;SDS011;2057;50.858;6.572;2023-05-19T15:25:52;9.60;;;3.10;;